Terminal Aerodrome Forecast
Issued by NWS

Home | Current Version | Previous Version | Text Only | Print | Product List | Glossary On
Versions: 1 2 3 4 5 6 7 8 9 10 11 12 13 14 15 16 17 18 19
000
FTUS42 KGSP 211100
TAFGMU
TAF
KGMU 211135Z 2112/2212 26003KT P6SM SCT250
     FM211600 26007G14KT P6SM FEW060
     FM211900 25011G19KT P6SM FEW060
     FM220000 25007KT P6SM BKN060
     FM220600 31004KT P6SM BKN040
     FM220800 34007KT P6SM SCT040=

USA.gov is the U.S. government's official web portal to all federal, state and local government web resources and services.